Time;durP1;ratioP1;P1;durP2;ratioP2;P2;SDS_P1;SDS_P2;PMS_P1;PMS_P2;Temp;Humidity;BMP_temperature;BMP_pressure;BME280_temperature;BME280_humidity;BME280_pressure;Samples;Min_cycle;Max_cycle;Signal;HPM_P1;HPM_P2
2021/07/04 00:01:15;;;;;;;;;;;;;;;22.33;55.63;99343.91;3496848;28;19931;-69
2021/07/04 00:02:56;;;;;;;;;;;;;;;22.30;55.61;99349.88;3496199;28;19928;-69
2021/07/04 00:04:36;;;;;;;;;;;;;;;22.32;55.76;99344.19;3496712;28;19967;-69
2021/07/04 00:06:17;;;;;;;;;;;;;;;22.32;55.56;99345.00;3496473;28;19924;-68
2021/07/04 00:07:57;;;;;;;;;;;;;;;22.32;55.67;99342.28;3510009;28;19930;-69
2021/07/04 00:09:38;;;;;;;;;;;;;;;22.34;55.52;99342.00;3510869;28;19967;-69
2021/07/04 00:11:19;;;;;;;;;;;;;;;22.36;55.50;99337.13;3506708;28;20022;-70
2021/07/04 00:13:00;;;;;;;;;;;;;;;22.36;55.43;99339.84;3496912;28;19997;-68
2021/07/04 00:14:40;;;;;;;;;;;;;;;22.36;55.51;99343.34;3510389;28;19924;-69
2021/07/04 00:16:21;;;;;;;;;;;;;;;22.39;55.54;99340.06;3510591;28;19916;-69
2021/07/04 00:18:01;;;;;;;;;;;;;;;22.39;55.28;99337.34;3510703;28;19924;-69
2021/07/04 00:19:42;;;;;;;;;;;;;;;22.38;55.58;99338.47;3510544;28;19924;-69
2021/07/04 00:21:23;;;;;;;;;;;;;;;22.40;55.39;99343.59;3510424;28;20438;-69
2021/07/04 00:23:03;;;;;;;;;;;;;;;22.42;55.29;99344.94;3508911;28;19924;-70
2021/07/04 00:24:44;;;;;;;;;;;;;;;22.46;55.24;99333.50;3496631;28;19924;-69
2021/07/04 00:26:24;;;;;;;;;;;;;;;22.45;55.34;99338.13;3496591;28;19917;-69
2021/07/04 00:28:05;;;;;;;;;;;;;;;22.46;55.32;99339.78;3496775;28;19931;-70
2021/07/04 00:29:45;;;;;;;;;;;;;;;22.49;55.31;99352.78;3496497;28;19917;-69
2021/07/04 00:31:26;;;;;;;;;;;;;;;22.50;55.12;99348.97;3496312;28;20406;-69
2021/07/04 00:33:08;;;;;;;;;;;;;;;22.48;55.12;99355.78;3497358;28;19924;-69
2021/07/04 00:34:48;;;;;;;;;;;;;;;22.47;55.11;99349.53;3510477;28;20390;-70
2021/07/04 00:36:29;;;;;;;;;;;;;;;22.45;55.10;99349.00;3510445;28;20050;-69
2021/07/04 00:38:14;;;;;;;;;;;;;;;22.41;55.36;99339.81;3510405;28;19916;-70
2021/07/04 00:39:55;;;;;;;;;;;;;;;22.41;55.29;99345.25;3509363;28;20280;-70
2021/07/04 00:41:36;;;;;;;;;;;;;;;22.43;55.25;99343.03;3506778;28;19964;-69
2021/07/04 00:43:21;;;;;;;;;;;;;;;22.46;55.09;99345.19;3504073;28;19940;-69
2021/07/04 00:45:04;;;;;;;;;;;;;;;22.46;55.13;99345.19;3495349;28;19927;-69
2021/07/04 00:46:45;;;;;;;;;;;;;;;22.46;55.06;99353.34;3492955;28;20011;-69
2021/07/04 00:48:26;;;;;;;;;;;;;;;22.47;54.99;99360.41;3492429;28;20418;-69
2021/07/04 00:50:07;;;;;;;;;;;;;;;22.48;54.97;99362.00;3495541;28;20501;-69
2021/07/04 00:51:47;;;;;;;;;;;;;;;22.50;54.85;99359.81;3497312;28;20383;-69
2021/07/04 00:53:28;;;;;;;;;;;;;;;22.53;54.87;99361.97;3494854;28;20406;-71
2021/07/04 00:55:09;;;;;;;;;;;;;;;22.54;54.84;99362.81;3478933;28;19924;-69
2021/07/04 00:56:50;;;;;;;;;;;;;;;22.53;54.74;99356.53;3492046;28;19920;-69
2021/07/04 00:58:31;;;;;;;;;;;;;;;22.53;54.87;99353.81;3497913;28;20009;-70
2021/07/04 01:00:15;;;;;;;;;;;;;;;22.52;55.04;99356.84;3503859;28;19920;-70
2021/07/04 01:01:58;;;;;;;;;;;;;;;22.50;54.94;99365.25;3509153;28;19928;-69
2021/07/04 01:03:40;;;;;;;;;;;;;;;22.50;54.84;99373.41;3512876;28;20379;-69
2021/07/04 01:05:22;;;;;;;;;;;;;;;22.46;54.89;99366.09;3511759;28;19920;-69
2021/07/04 01:07:03;;;;;;;;;;;;;;;22.43;55.08;99367.47;3509454;28;20383;-69
2021/07/04 01:08:44;;;;;;;;;;;;;;;22.43;55.11;99362.88;3511968;28;19923;-70
2021/07/04 01:10:27;;;;;;;;;;;;;;;22.43;54.96;99360.16;3484478;28;19932;-70
2021/07/04 01:12:16;;;;;;;;;;;;;;;22.47;55.09;99359.59;3484497;28;19920;-69
2021/07/04 01:13:56;;;;;;;;;;;;;;;22.46;54.90;99358.78;3480786;28;19925;-70
2021/07/04 01:15:37;;;;;;;;;;;;;;;22.48;54.89;99355.78;3481425;28;19925;-70
2021/07/04 01:17:20;;;;;;;;;;;;;;;22.51;54.92;99355.19;3481469;28;19924;-70
2021/07/04 01:19:02;;;;;;;;;;;;;;;22.53;54.91;99353.81;3486904;28;20391;-69
2021/07/04 01:20:46;;;;;;;;;;;;;;;22.53;54.90;99353.81;3493465;28;19931;-70
2021/07/04 01:22:27;;;;;;;;;;;;;;;22.54;54.97;99358.19;3506686;28;19923;-69
2021/07/04 01:24:11;;;;;;;;;;;;;;;22.54;55.03;99352.75;3512501;28;19923;-69
2021/07/04 01:25:53;;;;;;;;;;;;;;;22.55;55.07;99362.50;3512647;28;20294;-70
2021/07/04 01:27:38;;;;;;;;;;;;;;;22.54;55.16;99366.34;3512482;28;19985;-68
2021/07/04 01:29:19;;;;;;;;;;;;;;;22.54;55.03;99369.03;3508354;28;19924;-69
2021/07/04 01:31:01;;;;;;;;;;;;;;;22.54;55.10;99370.97;3494958;28;19928;-69
2021/07/04 01:32:46;;;;;;;;;;;;;;;22.51;55.10;99374.22;3494970;28;19924;-69
2021/07/04 01:34:27;;;;;;;;;;;;;;;22.49;55.22;99373.72;3494448;28;20287;-68
2021/07/04 01:36:10;;;;;;;;;;;;;;;22.47;55.13;99370.44;3494695;28;20317;-69
2021/07/04 01:37:52;;;;;;;;;;;;;;;22.45;55.14;99373.44;3498201;28;20294;-69
2021/07/04 01:39:33;;;;;;;;;;;;;;;22.47;55.39;99365.03;3498857;28;19925;-70
2021/07/04 01:41:17;;;;;;;;;;;;;;;22.49;55.35;99369.06;3498200;28;19925;-70
2021/07/04 01:42:58;;;;;;;;;;;;;;;22.51;55.16;99366.91;3497268;28;19924;-70
2021/07/04 01:44:39;;;;;;;;;;;;;;;22.50;55.28;99365.25;3497376;28;19931;-70
2021/07/04 01:46:23;;;;;;;;;;;;;;;22.51;55.26;99366.06;3498083;28;20007;-69
2021/07/04 01:48:04;;;;;;;;;;;;;;;22.48;55.28;99367.44;3497547;28;19931;-69
2021/07/04 01:49:45;;;;;;;;;;;;;;;22.46;55.47;99364.22;3496991;28;20437;-69
2021/07/04 01:51:26;;;;;;;;;;;;;;;22.45;55.23;99373.44;3497838;28;19925;-68
2021/07/04 01:53:07;;;;;;;;;;;;;;;22.45;55.50;99372.63;3496987;28;20130;-69
2021/07/04 01:54:48;;;;;;;;;;;;;;;22.45;55.34;99365.28;3497311;28;19924;-69
2021/07/04 01:56:29;;;;;;;;;;;;;;;22.47;55.41;99365.81;3497199;28;19924;-72
2021/07/04 01:58:13;;;;;;;;;;;;;;;22.44;55.23;99366.41;3497360;28;19960;-70
2021/07/04 02:00:05;;;;;;;;;;;;;;;22.40;55.34;99365.31;3502767;28;20414;-69
2021/07/04 02:01:57;;;;;;;;;;;;;;;22.36;55.49;99367.00;3510926;28;19924;-70
2021/07/04 02:03:38;;;;;;;;;;;;;;;22.37;55.41;99366.69;3512013;28;20323;-70
2021/07/04 02:05:21;;;;;;;;;;;;;;;22.39;55.47;99377.28;3510933;28;20330;-69
2021/07/04 02:07:04;;;;;;;;;;;;;;;22.37;55.32;99371.31;3511830;28;19924;-71
2021/07/04 02:08:45;;;;;;;;;;;;;;;22.39;55.38;99377.28;3497057;28;20369;-70
2021/07/04 02:10:28;;;;;;;;;;;;;;;22.39;55.43;99361.81;3499161;28;19924;-70
2021/07/04 02:12:09;;;;;;;;;;;;;;;22.41;55.30;99375.09;3494457;28;19924;-69
2021/07/04 02:13:51;;;;;;;;;;;;;;;22.41;55.41;99377.81;3496898;28;19924;-69
2021/07/04 02:15:43;;;;;;;;;;;;;;;22.34;55.36;99369.16;3497056;28;20463;-69
2021/07/04 02:17:34;;;;;;;;;;;;;;;22.28;55.34;99383.84;3497889;28;19932;-69
2021/07/04 02:19:49;;;;;;;;;;;;;;;22.27;55.49;99382.22;3498765;28;20382;-69
2021/07/04 02:21:55;;;;;;;;;;;;;;;22.30;55.44;99382.47;3510484;28;20367;-69
2021/07/04 02:23:46;;;;;;;;;;;;;;;22.35;55.43;99389.78;3510810;28;19930;-69
2021/07/04 02:26:02;;;;;;;;;;;;;;;22.39;55.35;99386.25;3510010;28;20378;-70
2021/07/04 02:27:47;;;;;;;;;;;;;;;22.40;55.44;99387.84;3486749;28;20311;-70
2021/07/04 02:29:35;;;;;;;;;;;;;;;22.39;55.42;99388.16;3506321;28;19924;-70
2021/07/04 02:31:20;;;;;;;;;;;;;;;22.38;55.28;99389.22;3497943;28;20402;-69
2021/07/04 02:33:06;;;;;;;;;;;;;;;22.38;55.40;99390.06;3496809;28;19924;-69
2021/07/04 02:34:47;;;;;;;;;;;;;;;22.37;55.28;99396.56;3496645;28;19924;-69
2021/07/04 02:36:28;;;;;;;;;;;;;;;22.35;55.27;99397.94;3497550;28;20023;-70
2021/07/04 02:38:12;;;;;;;;;;;;;;;22.30;55.44;99397.97;3496525;28;19924;-69
2021/07/04 02:39:53;;;;;;;;;;;;;;;22.24;55.50;99401.81;3496900;28;19924;-69
2021/07/04 02:41:34;;;;;;;;;;;;;;;22.18;55.72;99399.06;3507970;28;20012;-70
2021/07/04 02:43:16;;;;;;;;;;;;;;;22.18;55.67;99406.41;3511338;28;19924;-70
2021/07/04 02:45:00;;;;;;;;;;;;;;;22.17;55.58;99411.00;3510621;28;19924;-70
2021/07/04 02:46:41;;;;;;;;;;;;;;;22.17;55.72;99405.56;3508271;28;19924;-70
2021/07/04 02:48:22;;;;;;;;;;;;;;;22.18;55.70;99406.41;3511585;28;19963;-69
2021/07/04 02:50:05;;;;;;;;;;;;;;;22.17;55.84;99410.19;3505616;28;19925;-69
2021/07/04 02:51:47;;;;;;;;;;;;;;;22.17;55.82;99402.88;3507578;28;19924;-69
2021/07/04 02:53:29;;;;;;;;;;;;;;;22.15;55.72;99407.78;3510661;28;19993;-70
2021/07/04 02:55:14;;;;;;;;;;;;;;;22.14;55.94;99406.13;3510430;28;19923;-70
2021/07/04 02:56:57;;;;;;;;;;;;;;;22.13;55.83;99415.38;3508002;28;19924;-70
2021/07/04 02:58:38;;;;;;;;;;;;;;;22.12;56.00;99416.50;3507823;28;20325;-70
2021/07/04 03:00:21;;;;;;;;;;;;;;;22.10;56.09;99415.94;3511762;28;19982;-70
2021/07/04 03:02:02;;;;;;;;;;;;;;;22.08;56.04;99415.41;3498224;28;20478;-71
2021/07/04 03:03:43;;;;;;;;;;;;;;;22.07;56.14;99416.50;3497672;28;19970;-70
2021/07/04 03:05:24;;;;;;;;;;;;;;;22.06;56.14;99414.88;3496476;28;19931;-69
2021/07/04 03:07:05;;;;;;;;;;;;;;;22.07;56.35;99404.81;3493797;28;19924;-69
2021/07/04 03:08:48;;;;;;;;;;;;;;;22.09;56.15;99418.91;3494130;28;20394;-69
2021/07/04 03:10:33;;;;;;;;;;;;;;;22.11;56.05;99422.97;3495525;28;19931;-69
2021/07/04 03:12:13;;;;;;;;;;;;;;;22.13;56.15;99420.81;3507453;28;19928;-70
2021/07/04 03:13:54;;;;;;;;;;;;;;;22.14;56.12;99421.63;3507242;28;20014;-69
2021/07/04 03:15:35;;;;;;;;;;;;;;;22.15;56.18;99426.78;3510529;28;19982;-69
2021/07/04 03:17:16;;;;;;;;;;;;;;;22.15;56.09;99423.22;3509916;28;19931;-69
2021/07/04 03:18:58;;;;;;;;;;;;;;;22.10;56.29;99424.09;3510454;28;19924;-69
2021/07/04 03:20:39;;;;;;;;;;;;;;;22.09;56.30;99425.16;3511269;28;19946;-68
2021/07/04 03:22:26;;;;;;;;;;;;;;;22.08;56.44;99428.97;3510074;28;19924;-69
2021/07/04 03:24:06;;;;;;;;;;;;;;;22.06;56.48;99420.28;3508449;28;19925;-69
2021/07/04 03:25:47;;;;;;;;;;;;;;;22.04;56.54;99438.75;3505506;28;19928;-68
2021/07/04 03:27:30;;;;;;;;;;;;;;;22.03;56.51;99426.28;3498318;28;19925;-69
2021/07/04 03:29:13;;;;;;;;;;;;;;;22.03;56.42;99426.28;3493524;28;20414;-69
2021/07/04 03:30:57;;;;;;;;;;;;;;;22.02;56.65;99429.25;3486785;28;19932;-70
2021/07/04 03:32:38;;;;;;;;;;;;;;;22.00;56.60;99422.22;3507277;28;20302;-69
2021/07/04 03:34:18;;;;;;;;;;;;;;;22.02;56.74;99431.97;3510576;28;19923;-69
2021/07/04 03:36:02;;;;;;;;;;;;;;;22.03;56.88;99437.13;3510046;28;19924;-69
2021/07/04 03:37:44;;;;;;;;;;;;;;;22.01;56.92;99439.31;3496242;28;20471;-69
2021/07/04 03:39:28;;;;;;;;;;;;;;;21.97;56.82;99438.25;3507205;28;19924;-69
2021/07/04 03:41:08;;;;;;;;;;;;;;;21.98;56.89;99432.53;3508877;28;19924;-69
2021/07/04 03:42:50;;;;;;;;;;;;;;;22.00;56.86;99437.69;3510611;28;19924;-70
2021/07/04 03:44:34;;;;;;;;;;;;;;;22.00;56.84;99443.94;3511115;28;19989;-69
2021/07/04 03:46:15;;;;;;;;;;;;;;;22.04;57.01;99443.38;3509910;28;20473;-69
2021/07/04 03:48:00;;;;;;;;;;;;;;;;;;3510519;28;19971;-69
2021/07/04 03:49:52;;;;;;;;;;;;;;;22.08;56.93;99439.84;3509912;28;19924;-70
2021/07/04 03:51:33;;;;;;;;;;;;;;;22.10;56.69;99439.56;3505253;28;20038;-68
2021/07/04 03:53:17;;;;;;;;;;;;;;;22.09;56.72;99441.44;3510206;28;19978;-69
2021/07/04 03:55:01;;;;;;;;;;;;;;;22.08;56.80;99453.41;3508939;28;20356;-69
2021/07/04 03:56:44;;;;;;;;;;;;;;;22.08;56.78;99455.31;3482461;28;20418;-70
2021/07/04 03:58:25;;;;;;;;;;;;;;;22.09;57.07;99443.34;3501873;28;19931;-69
2021/07/04 04:00:06;;;;;;;;;;;;;;;22.09;56.87;99446.88;3507050;28;19955;-69
2021/07/04 04:01:57;;;;;;;;;;;;;;;22.09;57.03;99449.59;3500637;28;19924;-69
2021/07/04 04:03:38;;;;;;;;;;;;;;;22.07;57.01;99459.94;3495765;28;20485;-69
2021/07/04 04:05:18;;;;;;;;;;;;;;;22.07;57.21;99459.09;3496609;28;19929;-69
2021/07/04 04:07:04;;;;;;;;;;;;;;;22.08;57.32;99458.84;3495894;28;19939;-69
2021/07/04 04:08:45;;;;;;;;;;;;;;;22.07;57.12;99465.38;3492851;28;19971;-69
2021/07/04 04:10:33;;;;;;;;;;;;;;;22.04;57.32;99456.94;3493800;28;20326;-70
2021/07/04 04:12:17;;;;;;;;;;;;;;;22.06;57.27;99463.72;3493626;28;20387;-69
2021/07/04 04:13:58;;;;;;;;;;;;;;;22.08;57.13;99461.53;3507436;28;19942;-70
2021/07/04 04:15:38;;;;;;;;;;;;;;;22.13;57.02;99466.16;3509426;28;20014;-70
2021/07/04 04:17:20;;;;;;;;;;;;;;;22.17;57.08;99459.88;3507064;28;19973;-69
2021/07/04 04:19:02;;;;;;;;;;;;;;;22.20;57.20;99464.81;3509613;28;19937;-69
2021/07/04 04:20:43;;;;;;;;;;;;;;;22.21;57.16;99469.13;3495803;28;19931;-68
2021/07/04 04:22:25;;;;;;;;;;;;;;;22.21;57.01;99473.75;3492903;28;20371;-69
2021/07/04 04:24:06;;;;;;;;;;;;;;;22.21;57.27;99480.00;3492694;28;19931;-69
2021/07/04 04:25:46;;;;;;;;;;;;;;;22.17;57.04;99476.16;3492870;28;20441;-70
2021/07/04 04:27:27;;;;;;;;;;;;;;;22.12;57.08;99476.19;3496308;28;19977;-69
2021/07/04 04:29:09;;;;;;;;;;;;;;;22.11;57.23;99477.28;3496457;28;20420;-70
2021/07/04 04:30:51;;;;;;;;;;;;;;;22.11;57.25;99477.28;3508947;28;20368;-69
2021/07/04 04:32:33;;;;;;;;;;;;;;;22.14;57.13;99476.72;3509964;28;20379;-68
2021/07/04 04:34:14;;;;;;;;;;;;;;;22.15;57.35;99478.34;3513301;28;19973;-68
2021/07/04 04:35:55;;;;;;;;;;;;;;;22.17;57.44;99478.88;3513181;28;20074;-69
2021/07/04 04:37:36;;;;;;;;;;;;;;;22.15;57.45;99480.25;3512327;28;19924;-69
2021/07/04 04:39:20;;;;;;;;;;;;;;;22.14;57.23;99481.34;3512928;28;19931;-67
2021/07/04 04:41:00;;;;;;;;;;;;;;;22.10;57.53;99486.53;3498713;28;20029;-70
2021/07/04 04:42:41;;;;;;;;;;;;;;;22.10;57.51;99480.28;3499394;28;19924;-70
2021/07/04 04:44:21;;;;;;;;;;;;;;;22.11;57.50;99481.91;3498949;28;19925;-70
2021/07/04 04:46:02;;;;;;;;;;;;;;;22.09;57.55;99486.78;3499045;28;19932;-69
2021/07/04 04:47:42;;;;;;;;;;;;;;;22.10;57.46;99491.94;3499073;28;19924;-69
2021/07/04 04:49:23;;;;;;;;;;;;;;;22.14;57.40;99492.19;3499111;28;20419;-69
2021/07/04 04:51:03;;;;;;;;;;;;;;;22.17;57.50;99495.16;3511818;28;19924;-69
2021/07/04 04:52:44;;;;;;;;;;;;;;;22.19;57.42;99501.16;3512627;28;19924;-69
2021/07/04 04:54:24;;;;;;;;;;;;;;;22.19;57.62;99498.44;3512737;28;19923;-70
2021/07/04 04:56:05;;;;;;;;;;;;;;;22.21;57.50;99499.00;3511791;28;19924;-70
2021/07/04 04:57:45;;;;;;;;;;;;;;;22.24;57.19;99494.09;3512506;28;20410;-70
2021/07/04 04:59:26;;;;;;;;;;;;;;;22.26;57.32;99503.59;3511816;28;19963;-69
2021/07/04 05:01:07;;;;;;;;;;;;;;;22.29;57.13;99496.81;3498755;28;20296;-70
2021/07/04 05:02:48;;;;;;;;;;;;;;;22.32;57.23;99496.25;3498889;28;19924;-69
2021/07/04 05:04:29;;;;;;;;;;;;;;;22.35;57.27;99488.34;3497727;28;19924;-69
2021/07/04 05:06:09;;;;;;;;;;;;;;;22.32;57.34;99494.34;3498609;28;20303;-69
2021/07/04 05:07:50;;;;;;;;;;;;;;;22.28;57.33;99506.03;3498869;28;19925;-69
2021/07/04 05:09:30;;;;;;;;;;;;;;;22.25;57.54;99503.88;3498888;28;19924;-69
2021/07/04 05:11:11;;;;;;;;;;;;;;;22.26;57.37;99500.09;3511231;28;20302;-69
2021/07/04 05:12:51;;;;;;;;;;;;;;;22.28;57.39;99497.88;3512703;28;19928;-69
2021/07/04 05:14:32;;;;;;;;;;;;;;;22.31;57.44;99497.34;3512613;28;19977;-70
2021/07/04 05:16:13;;;;;;;;;;;;;;;22.32;57.32;99498.97;3512748;28;19924;-70
2021/07/04 05:17:54;;;;;;;;;;;;;;;22.32;57.53;99501.69;3512867;28;19973;-70
2021/07/04 05:19:35;;;;;;;;;;;;;;;22.31;57.60;99505.50;3512180;28;20355;-69
2021/07/04 05:21:15;;;;;;;;;;;;;;;22.29;57.41;99502.25;3484871;28;20409;-70
2021/07/04 05:22:56;;;;;;;;;;;;;;;22.29;57.57;99502.25;3483806;28;19931;-70
2021/07/04 05:24:36;;;;;;;;;;;;;;;22.31;57.66;99502.78;3484507;28;19924;-69
2021/07/04 05:26:18;;;;;;;;;;;;;;;22.33;57.35;99500.56;3485108;28;19928;-69
2021/07/04 05:27:59;;;;;;;;;;;;;;;22.34;57.50;99499.50;3484491;28;19960;-69
2021/07/04 05:29:39;;;;;;;;;;;;;;;22.34;57.62;99491.34;3485783;28;20383;-69
2021/07/04 05:31:20;;;;;;;;;;;;;;;22.36;57.51;99503.56;3512365;28;20409;-69
2021/07/04 05:33:00;;;;;;;;;;;;;;;22.39;57.45;99489.44;3512447;28;20390;-70
2021/07/04 05:34:41;;;;;;;;;;;;;;;22.41;57.42;99500.03;3511359;28;19924;-68
2021/07/04 05:36:21;;;;;;;;;;;;;;;22.46;57.35;99496.47;3512152;28;19931;-70
2021/07/04 05:38:02;;;;;;;;;;;;;;;22.51;57.10;99496.44;3512508;28;19947;-69
2021/07/04 05:39:42;;;;;;;;;;;;;;;22.52;57.07;99490.75;3512350;28;19928;-70
2021/07/04 05:41:23;;;;;;;;;;;;;;;22.55;57.23;99495.59;3509923;28;19931;-70
2021/07/04 05:43:03;;;;;;;;;;;;;;;22.53;57.26;99492.34;3512019;28;19962;-70
2021/07/04 05:44:44;;;;;;;;;;;;;;;22.51;57.37;99502.72;3511253;28;19924;-69
2021/07/04 05:46:24;;;;;;;;;;;;;;;22.49;57.42;99491.31;3512044;28;19977;-69
2021/07/04 05:48:05;;;;;;;;;;;;;;;22.44;57.50;99502.19;3511245;28;19923;-69
2021/07/04 05:49:46;;;;;;;;;;;;;;;22.41;57.61;99500.03;3508648;28;21072;-69
2021/07/04 05:51:27;;;;;;;;;;;;;;;22.41;57.61;99510.91;3496876;28;19925;-69
2021/07/04 05:53:07;;;;;;;;;;;;;;;22.43;57.38;99500.53;3497869;28;19925;-69
2021/07/04 05:54:48;;;;;;;;;;;;;;;22.45;57.66;99503.00;3497938;28;19979;-69
2021/07/04 05:56:28;;;;;;;;;;;;;;;22.46;57.47;99505.44;3498122;28;20387;-69
2021/07/04 05:58:09;;;;;;;;;;;;;;;22.45;57.48;99509.22;3498274;28;20019;-69
2021/07/04 05:59:49;;;;;;;;;;;;;;;22.43;57.45;99511.41;3497963;28;19975;-69
2021/07/04 06:01:30;;;;;;;;;;;;;;;22.43;57.38;99519.56;3508969;28;20057;-68
2021/07/04 06:03:11;;;;;;;;;;;;;;;22.42;57.69;99512.50;3512075;28;19950;-69
2021/07/04 06:04:51;;;;;;;;;;;;;;;22.41;57.61;99519.03;3512179;28;20012;-69
2021/07/04 06:06:32;;;;;;;;;;;;;;;22.39;57.57;99519.31;3510941;28;20434;-69
2021/07/04 06:08:12;;;;;;;;;;;;;;;22.42;57.60;99517.94;3511821;28;19928;-69
2021/07/04 06:09:53;;;;;;;;;;;;;;;22.46;57.50;99516.31;3502923;28;19924;-70
2021/07/04 06:11:33;;;;;;;;;;;;;;;22.51;57.52;99518.16;3498053;28;19924;-68
2021/07/04 06:13:14;;;;;;;;;;;;;;;22.52;57.19;99515.19;3502344;28;20513;-69
2021/07/04 06:14:54;;;;;;;;;;;;;;;22.52;57.17;99515.19;3502740;28;19924;-68
2021/07/04 06:16:35;;;;;;;;;;;;;;;22.53;57.38;99516.81;3511911;28;19931;-70
2021/07/04 06:18:15;;;;;;;;;;;;;;;22.57;57.38;99517.88;3511344;28;20302;-69
2021/07/04 06:19:56;;;;;;;;;;;;;;;22.61;57.26;99515.41;3510753;28;19923;-70
2021/07/04 06:21:36;;;;;;;;;;;;;;;22.63;57.30;99516.75;3508199;28;19924;-70
2021/07/04 06:23:17;;;;;;;;;;;;;;;22.64;57.24;99509.44;3499516;28;19925;-70
2021/07/04 06:24:57;;;;;;;;;;;;;;;22.64;57.10;99517.59;3503733;28;20291;-70
2021/07/04 06:26:38;;;;;;;;;;;;;;;22.65;57.17;99519.22;3497275;28;20508;-69
2021/07/04 06:28:19;;;;;;;;;;;;;;;22.65;57.24;99514.59;3494104;28;19924;-70
2021/07/04 06:29:59;;;;;;;;;;;;;;;22.68;57.22;99512.41;3497409;28;19925;-70
2021/07/04 06:31:40;;;;;;;;;;;;;;;22.73;57.22;99517.81;3497812;28;19925;-69
2021/07/04 06:33:20;;;;;;;;;;;;;;;22.79;56.87;99512.06;3496945;28;20318;-70
2021/07/04 06:35:01;;;;;;;;;;;;;;;22.82;56.94;99516.13;3502352;28;20349;-70
2021/07/04 06:36:41;;;;;;;;;;;;;;;22.80;56.72;99510.19;3510882;28;20016;-69
2021/07/04 06:38:22;;;;;;;;;;;;;;;22.78;56.98;99512.34;3511435;28;19982;-71
2021/07/04 06:40:04;;;;;;;;;;;;;;;22.74;56.83;99517.53;3511215;28;20413;-70
2021/07/04 06:41:44;;;;;;;;;;;;;;;22.75;56.82;99515.63;3511469;28;19931;-69
2021/07/04 06:43:25;;;;;;;;;;;;;;;22.78;56.95;99518.59;3511728;28;20390;-70
2021/07/04 06:45:09;;;;;;;;;;;;;;;22.80;56.69;99527.28;3507298;28;19968;-69
2021/07/04 06:46:50;;;;;;;;;;;;;;;22.83;56.34;99528.63;3510556;28;19923;-69
2021/07/04 06:48:31;;;;;;;;;;;;;;;22.85;56.52;99523.75;3510315;28;19930;-70
2021/07/04 06:50:12;;;;;;;;;;;;;;;22.88;56.26;99523.19;3511443;28;20041;-69
2021/07/04 06:51:52;;;;;;;;;;;;;;;22.87;56.47;99521.53;3511638;28;19979;-69
2021/07/04 06:53:33;;;;;;;;;;;;;;;22.92;56.37;99524.22;3509965;28;20322;-70
2021/07/04 06:55:14;;;;;;;;;;;;;;;22.96;56.40;99521.78;3510821;28;19993;-70
2021/07/04 06:56:54;;;;;;;;;;;;;;;23.01;56.22;99528.03;3509081;28;20299;-70
2021/07/04 06:58:35;;;;;;;;;;;;;;;23.05;56.17;99529.09;3511347;28;19946;-70
2021/07/04 07:00:16;;;;;;;;;;;;;;;23.07;55.98;99524.16;3511396;28;20319;-69
2021/07/04 07:01:57;;;;;;;;;;;;;;;23.06;55.96;99528.00;3502323;28;19925;-70
2021/07/04 07:03:37;;;;;;;;;;;;;;;23.08;55.97;99523.09;3497326;28;19925;-70
2021/07/04 07:05:19;;;;;;;;;;;;;;;23.14;55.99;99523.06;3499084;28;20398;-71
2021/07/04 07:07:00;;;;;;;;;;;;;;;23.19;55.82;99523.03;3483342;28;19929;-69
2021/07/04 07:08:41;;;;;;;;;;;;;;;23.24;55.78;99514.84;3483384;28;20297;-70
2021/07/04 07:10:22;;;;;;;;;;;;;;;23.30;55.65;99524.56;3483526;28;20023;-70
2021/07/04 07:12:03;;;;;;;;;;;;;;;23.35;55.52;99516.38;3499180;28;19931;-69
2021/07/04 07:13:44;;;;;;;;;;;;;;;23.43;55.56;99529.38;3507290;28;20022;-69
2021/07/04 07:15:24;;;;;;;;;;;;;;;23.49;55.29;99524.69;3510543;28;19924;-68
2021/07/04 07:17:05;;;;;;;;;;;;;;;23.53;55.40;99528.47;3498840;28;19966;-69
2021/07/04 07:18:45;;;;;;;;;;;;;;;23.57;55.12;99524.09;3497155;28;20448;-70
2021/07/04 07:20:29;;;;;;;;;;;;;;;23.58;55.05;99523.00;3496872;28;19942;-69
2021/07/04 07:22:10;;;;;;;;;;;;;;;23.59;54.98;99519.16;3501935;28;20437;-69
2021/07/04 07:23:50;;;;;;;;;;;;;;;23.59;54.93;99521.09;3510127;28;19924;-69
2021/07/04 07:25:31;;;;;;;;;;;;;;;23.60;54.76;99525.44;3504963;28;20000;-70
2021/07/04 07:27:12;;;;;;;;;;;;;;;23.61;54.79;99513.47;3496915;28;19930;-70
2021/07/04 07:28:53;;;;;;;;;;;;;;;23.63;54.86;99519.44;3497167;28;20337;-69
2021/07/04 07:30:33;;;;;;;;;;;;;;;23.65;54.87;99512.59;3497419;28;20290;-68
2021/07/04 07:32:15;;;;;;;;;;;;;;;23.73;54.55;99511.22;3496192;28;20014;-69
2021/07/04 07:33:55;;;;;;;;;;;;;;;23.79;54.40;99501.09;3496363;28;19977;-69
2021/07/04 07:35:37;;;;;;;;;;;;;;;23.85;54.31;99506.22;3496822;28;19924;-69
2021/07/04 07:37:19;;;;;;;;;;;;;;;23.93;54.17;99508.31;3496034;28;19932;-69
2021/07/04 07:38:59;;;;;;;;;;;;;;;24.00;54.12;99509.88;3492921;28;20411;-69
2021/07/04 07:40:47;;;;;;;;;;;;;;;24.05;53.66;99513.34;3494209;28;19956;-71
2021/07/04 07:42:28;;;;;;;;;;;;;;;24.07;53.77;99513.06;3496530;28;19924;-69
2021/07/04 07:44:08;;;;;;;;;;;;;;;24.10;53.78;99521.44;3495837;28;19993;-71
2021/07/04 07:45:49;;;;;;;;;;;;;;;24.12;53.69;99521.97;3497382;28;20299;-70
2021/07/04 07:47:29;;;;;;;;;;;;;;;24.10;53.70;99516.00;3496769;28;19955;-70
2021/07/04 07:49:10;;;;;;;;;;;;;;;24.09;53.93;99521.75;3496941;28;19939;-71
2021/07/04 07:51:02;;;;;;;;;;;;;;;24.05;54.00;99513.34;3496941;28;19928;-71
2021/07/04 07:52:42;;;;;;;;;;;;;;;24.02;54.18;99504.94;3496784;28;19928;-70
2021/07/04 07:54:23;;;;;;;;;;;;;;;24.01;54.35;99506.03;3496803;28;19986;-71
2021/07/04 07:56:03;;;;;;;;;;;;;;;24.01;54.41;99508.75;3503487;28;19924;-70
2021/07/04 07:57:58;;;;;;;;;;;;;;;23.99;54.34;99502.81;3510124;28;19916;-71
2021/07/04 07:59:38;;;;;;;;;;;;;;;23.95;54.51;99508.81;3505932;28;19930;-70
2021/07/04 08:01:19;;;;;;;;;;;;;;;23.93;54.55;99510.19;3491692;28;19924;-71
2021/07/04 08:03:08;;;;;;;;;;;;;;;23.92;54.68;99505.84;3494328;28;19924;-71
2021/07/04 08:04:48;;;;;;;;;;;;;;;23.93;54.84;99505.56;3497688;28;20454;-71
2021/07/04 08:06:29;;;;;;;;;;;;;;;23.94;54.66;99501.75;3500298;28;19924;-70
2021/07/04 08:08:09;;;;;;;;;;;;;;;23.98;54.73;99496.53;3510364;28;19930;-72
2021/07/04 08:09:50;;;;;;;;;;;;;;;24.04;54.70;99497.31;3499298;28;20378;-71
2021/07/04 08:11:31;;;;;;;;;;;;;;;24.13;54.61;99509.16;3495730;28;19978;-71
2021/07/04 08:13:11;;;;;;;;;;;;;;;24.26;54.35;99507.66;3496607;28;19938;-70
2021/07/04 08:14:54;;;;;;;;;;;;;;;24.40;54.09;99502.34;3497114;28;19924;-71
2021/07/04 08:16:34;;;;;;;;;;;;;;;24.51;53.93;99501.97;3501401;28;20398;-70
2021/07/04 08:18:15;;;;;;;;;;;;;;;24.64;53.48;99494.97;3507038;28;19927;-69
2021/07/04 08:19:56;;;;;;;;;;;;;;;24.76;53.43;99503.56;3501900;28;19984;-70
2021/07/04 08:21:36;;;;;;;;;;;;;;;24.87;53.04;99500.69;3512532;28;19917;-71
2021/07/04 08:23:17;;;;;;;;;;;;;;;24.95;52.80;99502.75;3511447;28;19931;-71
2021/07/04 08:24:58;;;;;;;;;;;;;;;25.02;52.88;99503.19;3492452;28;19978;-70
2021/07/04 08:26:38;;;;;;;;;;;;;;;25.06;52.83;99498.75;3498765;28;19925;-71
2021/07/04 08:28:19;;;;;;;;;;;;;;;25.08;52.73;99510.19;3497862;28;19928;-71
2021/07/04 08:30:02;;;;;;;;;;;;;;;25.08;52.59;99506.66;3497215;28;19928;-72
2021/07/04 08:31:44;;;;;;;;;;;;;;;25.04;51.33;99500.97;3496820;28;20018;-70
2021/07/04 08:33:25;;;;;;;;;;;;;;;24.98;52.50;99502.16;3496349;28;19924;-72
2021/07/04 08:35:05;;;;;;;;;;;;;;;24.91;52.31;99497.09;3495117;28;19951;-72
2021/07/04 08:36:46;;;;;;;;;;;;;;;24.87;52.49;99511.59;3497146;28;19921;-70
2021/07/04 08:38:27;;;;;;;;;;;;;;;24.84;52.41;99504.00;3509488;28;20438;-73
2021/07/04 08:40:07;;;;;;;;;;;;;;;24.80;52.60;99510.03;3504601;28;19927;-75
2021/07/04 08:41:48;;;;;;;;;;;;;;;24.79;52.25;99505.69;3500464;28;19931;-75
2021/07/04 08:43:30;;;;;;;;;;;;;;;24.77;52.53;99505.16;3510737;28;19927;-74
2021/07/04 08:45:11;;;;;;;;;;;;;;;24.73;52.68;99514.22;3499641;28;20360;-73
2021/07/04 08:46:52;;;;;;;;;;;;;;;24.67;52.48;99518.94;3495478;28;19950;-75
2021/07/04 08:48:35;;;;;;;;;;;;;;;24.63;52.46;99517.06;3490617;28;19962;-75
2021/07/04 08:50:19;;;;;;;;;;;;;;;24.56;52.41;99517.44;3493883;28;19931;-75
2021/07/04 08:52:00;;;;;;;;;;;;;;;24.51;52.53;99517.50;3477218;28;19929;-73